createdAt,value
2019-02-26T00:00:23.958Z,17.32
2019-02-26T00:02:53.504Z,18.42
2019-02-26T00:05:23.870Z,18.31
2019-02-26T00:07:53.393Z,17.46
2019-02-26T00:10:26.581Z,16.96
2019-02-26T00:12:52.927Z,18.01
2019-02-26T00:15:21.193Z,18.09
2019-02-26T00:17:50.859Z,18.10
2019-02-26T00:20:19.456Z,16.29
2019-02-26T00:22:47.844Z,17.20
2019-02-26T00:25:17.980Z,17.99
2019-02-26T00:27:47.647Z,17.09
2019-02-26T00:30:18.495Z,17.30
2019-02-26T00:32:46.455Z,17.10
2019-02-26T00:35:15.970Z,17.06
2019-02-26T00:37:46.538Z,16.00
2019-02-26T00:40:17.164Z,17.97
2019-02-26T00:42:44.918Z,17.07
2019-02-26T00:45:16.166Z,17.02
2019-02-26T00:47:46.234Z,17.03
2019-02-26T00:50:16.649Z,17.23
2019-02-26T00:52:44.966Z,17.31
2019-02-26T00:55:13.410Z,17.53
2019-02-26T00:57:43.049Z,18.02
2019-02-26T01:00:16.061Z,16.97
2019-02-26T01:02:44.530Z,17.66
2019-02-26T01:05:15.719Z,17.37
2019-02-26T01:07:46.688Z,17.29
2019-02-26T01:10:16.302Z,17.24
2019-02-26T01:12:44.623Z,17.40
2019-02-26T01:15:17.625Z,17.53
2019-02-26T01:17:46.103Z,16.93
2019-02-26T01:20:19.711Z,17.11
2019-02-26T01:22:48.116Z,17.08
2019-02-26T01:25:18.506Z,17.58
2019-02-26T01:27:48.359Z,16.28
2019-02-26T01:30:21.251Z,17.02
2019-02-26T01:32:46.911Z,16.99
2019-02-26T01:35:15.213Z,17.09
2019-02-26T01:37:43.488Z,16.56
2019-02-26T01:40:15.787Z,17.38
2019-02-26T01:42:47.228Z,15.85
2019-02-26T01:45:13.712Z,14.77
2019-02-26T01:47:42.828Z,16.48
2019-02-26T01:50:13.980Z,17.00
2019-02-26T01:52:43.037Z,15.52
2019-02-26T01:55:12.014Z,16.31
2019-02-26T01:57:42.486Z,15.81
2019-02-26T02:00:15.993Z,16.04
2019-02-26T02:02:44.262Z,15.00
2019-02-26T02:05:12.705Z,16.54
2019-02-26T02:07:40.976Z,15.37
2019-02-26T02:10:14.260Z,17.18
2019-02-26T02:12:42.655Z,17.19
2019-02-26T02:15:15.811Z,17.19
2019-02-26T02:17:43.792Z,16.26
2019-02-26T02:20:16.477Z,15.07
2019-02-26T02:22:44.537Z,15.47
2019-02-26T02:25:13.236Z,15.24
2019-02-26T02:27:41.588Z,14.65
2019-02-26T02:30:22.505Z,15.71
2019-02-26T02:32:50.396Z,16.00
2019-02-26T02:35:18.494Z,15.53
2019-02-26T02:37:45.286Z,16.81
2019-02-26T02:40:14.266Z,15.27
2019-02-26T02:42:43.744Z,15.63
2019-02-26T02:45:16.691Z,16.09
2019-02-26T02:47:43.294Z,15.56
2019-02-26T02:50:15.184Z,15.49
2019-02-26T02:52:43.580Z,15.41
2019-02-26T02:55:13.856Z,16.30
2019-02-26T02:57:41.907Z,16.64
2019-02-26T03:00:13.573Z,17.28
2019-02-26T03:02:43.372Z,16.79
2019-02-26T03:05:12.953Z,17.17
2019-02-26T03:07:42.360Z,16.54
2019-02-26T03:10:16.688Z,15.93
2019-02-26T03:12:48.613Z,16.98
2019-02-26T03:15:17.360Z,17.14
2019-02-26T03:17:45.639Z,16.51
2019-02-26T03:20:15.587Z,16.06
2019-02-26T03:22:48.264Z,17.52
2019-02-26T03:25:17.684Z,17.18
2019-02-26T03:27:45.192Z,16.53
2019-02-26T03:30:26.455Z,17.22
2019-02-26T03:32:50.501Z,15.62
2019-02-26T03:35:19.213Z,15.04
2019-02-26T03:37:48.782Z,14.46
2019-02-26T03:40:16.641Z,16.28
2019-02-26T03:42:46.244Z,16.35
2019-02-26T03:45:23.893Z,16.17
2019-02-26T03:47:47.804Z,16.34
2019-02-26T03:50:16.557Z,16.79
2019-02-26T03:52:45.303Z,16.98
2019-02-26T03:55:15.487Z,16.35
2019-02-26T03:57:47.546Z,16.42
2019-02-26T04:00:20.511Z,16.93
2019-02-26T04:02:51.837Z,16.25
2019-02-26T04:05:19.355Z,17.09
2019-02-26T04:07:51.756Z,16.87
2019-02-26T04:10:17.697Z,17.25
2019-02-26T04:12:49.023Z,16.94
2019-02-26T04:15:19.475Z,16.98
2019-02-26T04:17:47.769Z,16.79
2019-02-26T04:20:16.627Z,15.77
2019-02-26T04:22:48.887Z,15.46
2019-02-26T04:25:25.659Z,15.51
2019-02-26T04:28:15.209Z,16.16
2019-02-26T04:30:50.308Z,15.46
2019-02-26T04:33:53.728Z,15.95
2019-02-26T04:36:27.886Z,16.01
2019-02-26T04:39:34.104Z,14.62
2019-02-26T04:42:17.740Z,15.25
2019-02-26T04:45:09.289Z,16.50
2019-02-26T04:47:58.384Z,17.19
2019-02-26T04:50:28.904Z,17.30
2019-02-26T04:52:59.761Z,15.53
2019-02-26T04:55:27.165Z,16.60
2019-02-26T04:57:57.066Z,15.63
2019-02-26T05:00:29.338Z,16.34
2019-02-26T05:02:55.339Z,16.29
2019-02-26T05:05:25.870Z,16.24
2019-02-26T05:07:53.678Z,15.46
2019-02-26T05:10:24.328Z,15.60
2019-02-26T05:12:56.175Z,16.22
2019-02-26T05:15:23.284Z,16.66
2019-02-26T05:17:52.072Z,16.32
2019-02-26T05:20:20.362Z,16.12
2019-02-26T05:22:48.658Z,15.91
2019-02-26T05:25:19.646Z,15.33
2019-02-26T05:27:48.812Z,15.00
2019-02-26T05:30:19.655Z,15.02
2019-02-26T05:32:46.976Z,15.74
2019-02-26T05:35:17.406Z,15.54
2019-02-26T05:37:45.305Z,15.52
2019-02-26T05:40:16.411Z,16.37
2019-02-26T05:42:43.691Z,15.65
2019-02-26T05:45:11.985Z,15.00
2019-02-26T05:47:42.865Z,14.86
2019-02-26T05:50:16.219Z,15.80
2019-02-26T05:52:40.322Z,15.70
2019-02-26T05:55:08.873Z,16.30
2019-02-26T05:57:37.145Z,15.59
2019-02-26T06:00:08.738Z,15.43
2019-02-26T06:02:40.131Z,16.21
2019-02-26T06:05:09.053Z,16.61
2019-02-26T06:07:38.809Z,16.68
2019-02-26T06:10:07.632Z,15.67
2019-02-26T06:12:38.225Z,15.52
2019-02-26T06:15:08.109Z,15.73
2019-02-26T06:17:40.578Z,16.33
2019-02-26T06:20:12.523Z,16.94
2019-02-26T06:22:40.830Z,16.74
2019-02-26T06:25:14.092Z,15.79
2019-02-26T06:27:39.180Z,15.84
2019-02-26T06:30:12.207Z,15.17
2019-02-26T06:32:42.640Z,14.81
2019-02-26T06:35:13.688Z,15.91
2019-02-26T06:37:42.924Z,15.82
2019-02-26T06:40:13.345Z,16.47
2019-02-26T06:42:41.611Z,16.61
2019-02-26T06:45:13.984Z,16.64
2019-02-26T06:47:42.404Z,16.88
2019-02-26T06:50:13.239Z,16.98
2019-02-26T06:52:42.994Z,16.84
2019-02-26T06:55:12.678Z,16.62
2019-02-26T06:57:41.432Z,16.33
2019-02-26T07:00:13.689Z,15.86
2019-02-26T07:02:45.501Z,15.70
2019-02-26T07:05:15.342Z,16.26
2019-02-26T07:07:43.597Z,16.41
2019-02-26T07:10:18.501Z,17.17
2019-02-26T07:12:48.043Z,16.47
2019-02-26T07:15:15.972Z,16.22
2019-02-26T07:17:45.874Z,16.28
2019-02-26T07:20:14.251Z,16.99
2019-02-26T07:22:44.053Z,16.55
2019-02-26T07:25:15.230Z,15.41
2019-02-26T07:27:42.547Z,16.72
2019-02-26T07:30:12.352Z,16.41
2019-02-26T07:32:41.224Z,16.15
2019-02-26T07:35:13.103Z,16.16
2019-02-26T07:37:40.792Z,16.17
2019-02-26T07:40:30.571Z,16.29
2019-02-26T07:42:59.834Z,16.50
2019-02-26T07:45:29.734Z,17.20
2019-02-26T07:47:59.090Z,16.12
2019-02-26T07:50:31.476Z,16.27
2019-02-26T07:52:59.434Z,16.15
2019-02-26T07:55:29.819Z,16.65
2019-02-26T07:57:57.816Z,16.19
2019-02-26T08:00:27.651Z,17.00
2019-02-26T08:02:57.853Z,16.84
2019-02-26T08:05:28.733Z,16.88
2019-02-26T08:07:56.613Z,16.99
2019-02-26T08:10:25.112Z,17.68
2019-02-26T08:12:53.397Z,17.18
2019-02-26T08:15:21.743Z,17.27
2019-02-26T08:17:51.226Z,17.97
2019-02-26T08:20:20.022Z,17.28
2019-02-26T08:22:49.537Z,18.49
2019-02-26T08:25:18.426Z,18.19
2019-02-26T08:27:46.690Z,18.64
2019-02-26T08:30:18.660Z,18.83
2019-02-26T08:32:51.119Z,18.48
2019-02-26T08:35:18.796Z,18.88
2019-02-26T08:37:46.213Z,19.16
2019-02-26T08:40:15.039Z,18.52
2019-02-26T08:42:43.298Z,19.15
2019-02-26T08:45:15.721Z,17.73
2019-02-26T08:47:44.591Z,18.52
2019-02-26T08:50:14.843Z,18.25
2019-02-26T08:52:44.901Z,18.39
2019-02-26T08:55:16.134Z,18.80
2019-02-26T08:57:44.601Z,18.86
2019-02-26T09:00:20.440Z,19.85
2019-02-26T09:02:53.569Z,19.77
2019-02-26T09:05:18.821Z,19.93
2019-02-26T09:07:50.129Z,19.94
2019-02-26T09:10:17.899Z,18.83
2019-02-26T09:12:49.067Z,19.19
2019-02-26T09:15:18.618Z,19.54
2019-02-26T09:17:46.931Z,19.66
2019-02-26T09:20:18.385Z,20.08
2019-02-26T09:22:50.290Z,19.86
2019-02-26T09:25:16.858Z,19.47
2019-02-26T09:27:45.167Z,19.99
2019-02-26T09:30:19.768Z,20.46
2019-02-26T09:32:48.113Z,20.98
2019-02-26T09:35:22.805Z,20.69
2019-02-26T09:37:52.019Z,20.85
2019-02-26T09:40:23.096Z,19.89
2019-02-26T09:42:52.325Z,21.78
2019-02-26T09:45:29.329Z,22.75
2019-02-26T09:47:57.989Z,22.94
2019-02-26T09:50:26.005Z,22.14
2019-02-26T09:52:56.626Z,22.41
2019-02-26T09:55:24.348Z,22.41
2019-02-26T09:57:52.671Z,22.67
2019-02-26T10:00:23.640Z,21.39
2019-02-26T10:02:52.271Z,22.68
2019-02-26T10:05:20.694Z,22.42
2019-02-26T10:07:51.139Z,21.54
2019-02-26T10:10:20.336Z,21.84
2019-02-26T10:12:48.616Z,21.56
2019-02-26T10:15:18.134Z,20.99
2019-02-26T10:17:46.407Z,22.58
2019-02-26T10:20:24.877Z,22.53
2019-02-26T10:22:54.774Z,21.58
2019-02-26T10:25:23.337Z,22.73
2019-02-26T10:27:52.517Z,23.74
2019-02-26T10:30:21.723Z,24.05
2019-02-26T10:32:50.011Z,24.39
2019-02-26T10:35:32.559Z,24.07
2019-02-26T10:38:02.602Z,24.75
2019-02-26T10:40:35.197Z,25.06
2019-02-26T10:42:59.276Z,24.66
2019-02-26T10:45:28.996Z,24.88
2019-02-26T10:48:00.951Z,25.06
2019-02-26T10:50:31.658Z,24.42
2019-02-26T10:53:06.563Z,25.08
2019-02-26T10:55:35.295Z,25.72
2019-02-26T10:57:58.600Z,26.26
2019-02-26T11:00:32.212Z,25.23
2019-02-26T11:02:59.931Z,24.79
2019-02-26T11:05:28.331Z,24.55
2019-02-26T11:07:59.708Z,25.59
2019-02-26T11:10:26.764Z,25.29
2019-02-26T11:12:58.625Z,25.49
2019-02-26T11:15:26.925Z,25.20
2019-02-26T11:17:55.933Z,23.74
2019-02-26T11:20:27.691Z,24.28
2019-02-26T11:23:00.663Z,24.63
2019-02-26T11:25:37.067Z,25.08
2019-02-26T11:28:07.446Z,24.67
2019-02-26T11:30:37.032Z,25.91
2019-02-26T11:33:08.053Z,24.41
2019-02-26T11:35:35.408Z,25.23
2019-02-26T11:38:03.740Z,26.22
2019-02-26T11:40:32.009Z,25.53
2019-02-26T11:43:10.920Z,26.65
2019-02-26T11:45:32.247Z,27.28
2019-02-26T11:48:01.072Z,28.45
2019-02-26T11:50:30.285Z,28.98
2019-02-26T11:52:58.814Z,28.87
2019-02-26T11:55:31.386Z,28.76
2019-02-26T11:57:57.079Z,29.01
2019-02-26T12:00:50.553Z,29.49
2019-02-26T12:03:22.767Z,29.71
2019-02-26T12:05:49.390Z,31.55
2019-02-26T12:08:21.843Z,32.85
2019-02-26T12:10:47.700Z,33.24
2019-02-26T12:13:17.105Z,33.64
2019-02-26T12:15:45.955Z,33.99
2019-02-26T12:18:15.417Z,32.94
2019-02-26T12:20:48.090Z,33.86
2019-02-26T12:23:16.268Z,34.17
2019-02-26T12:25:44.431Z,31.81
2019-02-26T12:28:13.771Z,31.94
2019-02-26T12:30:44.782Z,34.50
2019-02-26T12:33:14.344Z,34.82
2019-02-26T12:35:43.705Z,34.28
2019-02-26T12:38:18.034Z,35.26
2019-02-26T12:40:44.724Z,35.47
2019-02-26T12:43:15.515Z,35.70
2019-02-26T12:45:42.175Z,37.18
2019-02-26T12:48:13.308Z,36.09
2019-02-26T12:50:40.712Z,37.33
2019-02-26T12:53:12.728Z,37.67
2019-02-26T12:55:41.995Z,37.46
2019-02-26T12:58:10.618Z,38.76
2019-02-26T13:00:42.018Z,38.69
2019-02-26T13:03:12.343Z,38.51
2019-02-26T13:05:41.964Z,37.74
2019-02-26T13:08:10.584Z,38.97
2019-02-26T13:10:41.977Z,40.39
2019-02-26T13:13:09.138Z,39.64
2019-02-26T13:15:40.551Z,40.00
2019-02-26T13:18:08.901Z,40.55
2019-02-26T13:20:37.537Z,41.20
2019-02-26T13:23:17.098Z,39.44
2019-02-26T13:25:35.794Z,39.67
2019-02-26T13:28:04.169Z,39.91
2019-02-26T13:30:32.439Z,40.84
2019-02-26T13:33:04.239Z,40.46
2019-02-26T13:35:30.710Z,41.06
2019-02-26T13:38:03.490Z,40.98
2019-02-26T13:40:38.148Z,40.29
2019-02-26T13:45:30.252Z,41.36
2019-02-26T13:48:01.265Z,39.46
2019-02-26T13:50:29.723Z,40.31
2019-02-26T13:52:58.869Z,39.58
2019-02-26T13:55:27.960Z,39.53
2019-02-26T13:57:56.231Z,38.76
2019-02-26T14:00:26.728Z,36.57
2019-02-26T14:02:54.602Z,37.31
2019-02-26T14:05:22.949Z,38.37
2019-02-26T14:07:51.360Z,39.20
2019-02-26T14:10:23.990Z,39.16
2019-02-26T14:12:52.264Z,38.67
2019-02-26T14:15:25.016Z,38.07
2019-02-26T14:17:53.549Z,38.79
2019-02-26T14:20:21.908Z,40.95
2019-02-26T14:22:50.271Z,40.12
2019-02-26T14:25:18.609Z,40.33
2019-02-26T14:27:46.929Z,39.32
2019-02-26T14:30:19.761Z,39.80
2019-02-26T14:32:48.056Z,39.76
2019-02-26T14:35:16.441Z,39.34
2019-02-26T14:37:44.724Z,41.40
2019-02-26T14:40:14.436Z,41.28
2019-02-26T14:42:42.732Z,41.64
2019-02-26T14:45:19.967Z,41.09
2019-02-26T14:47:48.264Z,39.57
2019-02-26T14:50:23.165Z,40.10
2019-02-26T14:52:51.428Z,40.28
2019-02-26T14:55:19.936Z,40.01
2019-02-26T14:57:48.230Z,39.30
2019-02-26T15:00:27.701Z,41.04
2019-02-26T15:02:56.181Z,40.34
2019-02-26T15:05:24.633Z,39.17
2019-02-26T15:07:52.899Z,37.52
2019-02-26T15:10:21.266Z,37.52
2019-02-26T15:12:49.546Z,39.08
2019-02-26T15:15:18.673Z,38.10
2019-02-26T15:17:47.040Z,36.23
2019-02-26T15:20:23.699Z,35.37
2019-02-26T15:22:51.973Z,34.01
2019-02-26T15:25:28.597Z,32.68
2019-02-26T15:28:04.613Z,33.25
2019-02-26T15:30:26.962Z,32.88
2019-02-26T15:32:55.256Z,31.91
2019-02-26T15:35:23.829Z,31.32
2019-02-26T15:37:52.093Z,32.49
2019-02-26T15:40:21.426Z,31.89
2019-02-26T15:42:52.385Z,31.49
2019-02-26T15:45:24.036Z,31.36
2019-02-26T15:47:52.743Z,31.10
2019-02-26T15:50:21.546Z,30.50
2019-02-26T15:52:52.612Z,29.95
2019-02-26T15:55:30.918Z,30.23
2019-02-26T15:58:03.115Z,30.12
2019-02-26T16:00:29.360Z,29.85
2019-02-26T16:02:59.396Z,29.96
2019-02-26T16:05:32.872Z,30.09
2019-02-26T16:08:01.132Z,29.29
2019-02-26T16:10:34.763Z,29.18
2019-02-26T16:13:05.990Z,29.73
2019-02-26T16:15:38.861Z,30.48
2019-02-26T16:18:07.144Z,29.56
2019-02-26T16:20:35.452Z,29.84
2019-02-26T16:23:03.819Z,30.18
2019-02-26T16:25:32.128Z,29.71
2019-02-26T16:28:00.370Z,28.93
2019-02-26T16:30:29.259Z,29.46
2019-02-26T16:32:57.638Z,29.22
2019-02-26T16:35:25.912Z,29.21
2019-02-26T16:37:54.178Z,28.66
2019-02-26T16:40:22.525Z,28.59
2019-02-26T16:42:50.887Z,28.44
2019-02-26T16:45:21.374Z,28.63
2019-02-26T16:47:49.742Z,28.60
2019-02-26T16:50:23.059Z,28.91
2019-02-26T16:52:51.925Z,28.98
2019-02-26T16:55:20.830Z,28.67
2019-02-26T16:57:49.168Z,28.92
2019-02-26T17:00:30.828Z,28.67
2019-02-26T17:03:00.999Z,28.36
2019-02-26T17:05:29.514Z,27.49
2019-02-26T17:07:58.170Z,28.13
2019-02-26T17:10:30.337Z,28.34
2019-02-26T17:13:01.854Z,26.99
2019-02-26T17:15:31.122Z,27.25
2019-02-26T17:17:59.582Z,27.14
2019-02-26T17:20:28.005Z,26.61
2019-02-26T17:22:56.293Z,27.13
2019-02-26T17:25:27.443Z,26.23
2019-02-26T17:27:54.641Z,26.33
2019-02-26T17:30:23.893Z,25.96
2019-02-26T17:32:53.000Z,26.73
2019-02-26T17:35:21.311Z,26.90
2019-02-26T17:37:49.578Z,25.21
2019-02-26T17:40:22.029Z,26.18
2019-02-26T17:42:51.330Z,25.53
2019-02-26T17:45:25.756Z,26.08
2019-02-26T17:47:56.522Z,26.45
2019-02-26T17:50:31.408Z,26.07
2019-02-26T17:52:59.762Z,25.24
2019-02-26T17:55:28.045Z,25.77
2019-02-26T17:58:00.668Z,25.27
2019-02-26T18:00:31.864Z,25.55
2019-02-26T18:03:06.364Z,25.05
2019-02-26T18:05:31.852Z,23.26
2019-02-26T18:08:00.194Z,24.65
2019-02-26T18:10:28.452Z,24.64
2019-02-26T18:12:56.741Z,23.63
2019-02-26T18:15:25.090Z,24.47
2019-02-26T18:17:53.395Z,24.30
2019-02-26T18:20:22.781Z,24.70
2019-02-26T18:22:51.140Z,24.65
2019-02-26T18:25:20.942Z,22.92
2019-02-26T18:27:49.203Z,23.13
2019-02-26T18:30:32.790Z,23.12
2019-02-26T18:33:01.137Z,23.79
2019-02-26T18:35:29.423Z,24.02
2019-02-26T18:37:57.771Z,22.15
2019-02-26T18:40:28.348Z,22.08
2019-02-26T18:42:56.072Z,22.54
2019-02-26T18:45:31.394Z,23.89
2019-02-26T18:47:59.678Z,23.96
2019-02-26T18:50:29.535Z,23.27
2019-02-26T18:52:58.447Z,23.46
2019-02-26T18:55:28.438Z,23.11
2019-02-26T18:57:57.023Z,23.60
2019-02-26T19:00:33.747Z,23.79
2019-02-26T19:03:02.086Z,23.55
2019-02-26T19:05:30.447Z,21.81
2019-02-26T19:07:58.719Z,21.78
2019-02-26T19:10:26.989Z,22.91
2019-02-26T19:12:55.257Z,21.84
2019-02-26T19:15:25.954Z,20.92
2019-02-26T19:17:56.933Z,21.92
2019-02-26T19:20:27.898Z,21.97
2019-02-26T19:22:58.545Z,21.33
2019-02-26T19:25:26.205Z,20.47
2019-02-26T19:27:57.170Z,22.28
2019-02-26T19:30:25.461Z,21.56
2019-02-26T19:32:53.784Z,20.98
2019-02-26T19:35:22.064Z,21.05
2019-02-26T19:37:55.263Z,21.32
2019-02-26T19:40:41.554Z,20.68
2019-02-26T19:43:09.839Z,20.85
2019-02-26T19:45:38.109Z,22.13
2019-02-26T19:48:06.425Z,22.28
2019-02-26T19:50:34.743Z,21.94
2019-02-26T19:53:03.166Z,21.75
2019-02-26T19:55:34.185Z,22.33
2019-02-26T19:58:04.017Z,22.62
2019-02-26T20:00:32.565Z,22.04
2019-02-26T20:03:04.880Z,21.16
2019-02-26T20:05:30.848Z,20.42
2019-02-26T20:07:59.122Z,21.45
2019-02-26T20:10:27.439Z,21.46
2019-02-26T20:12:55.873Z,20.95
2019-02-26T20:15:24.151Z,20.13
2019-02-26T20:17:54.070Z,20.94
2019-02-26T20:20:22.632Z,19.75
2019-02-26T20:22:50.911Z,19.64
2019-02-26T20:25:20.321Z,19.49
2019-02-26T20:27:48.611Z,21.02
2019-02-26T20:30:19.595Z,21.11
2019-02-26T20:32:47.926Z,22.01
2019-02-26T20:35:16.233Z,21.35
2019-02-26T20:37:44.599Z,21.26
2019-02-26T20:40:18.831Z,19.82
2019-02-26T20:42:47.780Z,20.95
2019-02-26T20:45:18.899Z,19.81
2019-02-26T20:47:47.485Z,19.05
2019-02-26T20:50:23.390Z,19.34
2019-02-26T20:53:07.079Z,20.98
2019-02-26T20:55:35.618Z,21.08
2019-02-26T20:58:03.875Z,20.78
2019-02-26T21:00:32.150Z,20.81
2019-02-26T21:03:00.449Z,21.42
2019-02-26T21:05:28.759Z,20.77
2019-02-26T21:07:59.023Z,21.21
2019-02-26T21:10:27.300Z,19.27
2019-02-26T21:12:55.608Z,19.31
2019-02-26T21:15:26.601Z,20.17
2019-02-26T21:17:58.726Z,19.95
2019-02-26T21:20:28.239Z,19.64
2019-02-26T21:22:59.370Z,19.08
2019-02-26T21:25:27.727Z,19.38
2019-02-26T21:27:55.995Z,20.02
2019-02-26T21:30:27.071Z,19.96
2019-02-26T21:32:57.833Z,20.26
2019-02-26T21:35:25.338Z,20.17
2019-02-26T21:37:53.617Z,19.51
2019-02-26T21:40:21.887Z,18.93
2019-02-26T21:42:50.156Z,19.41
2019-02-26T21:45:18.892Z,17.90
2019-02-26T21:47:47.187Z,19.39
2019-02-26T21:50:16.183Z,19.04
2019-02-26T21:52:59.116Z,19.82
2019-02-26T21:55:15.558Z,19.35
2019-02-26T21:57:43.906Z,18.68
2019-02-26T22:00:22.649Z,19.20
2019-02-26T22:02:52.472Z,19.00
2019-02-26T22:05:20.912Z,20.71
2019-02-26T22:07:51.960Z,19.72
2019-02-26T22:10:20.525Z,18.80
2019-02-26T22:12:48.788Z,19.55
2019-02-26T22:15:17.588Z,19.33
2019-02-26T22:17:45.916Z,19.24
2019-02-26T22:20:22.075Z,18.87
2019-02-26T22:22:45.577Z,19.31
2019-02-26T22:25:17.050Z,19.05
2019-02-26T22:27:44.877Z,18.70
2019-02-26T22:30:15.730Z,18.33
2019-02-26T22:32:44.085Z,18.18
2019-02-26T22:35:12.446Z,19.78
2019-02-26T22:37:41.376Z,18.71
2019-02-26T22:40:14.483Z,18.01
2019-02-26T22:42:42.838Z,19.63
2019-02-26T22:45:15.101Z,17.62
2019-02-26T22:47:44.241Z,17.35
2019-02-26T22:50:17.175Z,19.11
2019-02-26T22:52:45.478Z,18.60
2019-02-26T22:55:17.351Z,18.67
2019-02-26T22:57:45.887Z,17.83
2019-02-26T23:00:51.028Z,18.37
2019-02-26T23:03:19.368Z,17.82
2019-02-26T23:05:47.706Z,19.32
2019-02-26T23:08:16.127Z,17.54
2019-02-26T23:10:44.464Z,17.78
2019-02-26T23:13:13.185Z,17.58
2019-02-26T23:15:45.153Z,16.77
2019-02-26T23:18:12.077Z,18.09
2019-02-26T23:20:42.487Z,18.58
2019-02-26T23:23:10.451Z,19.29
2019-02-26T23:25:39.086Z,19.45
2019-02-26T23:28:07.427Z,19.37
2019-02-26T23:30:35.720Z,19.27
2019-02-26T23:33:05.941Z,19.17
2019-02-26T23:35:34.290Z,19.50
2019-02-26T23:38:02.541Z,16.91
2019-02-26T23:40:30.816Z,16.58
2019-02-26T23:42:59.102Z,16.89
2019-02-26T23:45:27.373Z,18.74
2019-02-26T23:47:55.675Z,19.11
2019-02-26T23:50:23.946Z,18.34
2019-02-26T23:52:52.217Z,17.57
2019-02-26T23:55:20.505Z,17.92
2019-02-26T23:57:48.787Z,18.46
